Pagrindinis puslapis
METAR-TAF:

METAR-TAF

Oro uostai :

Chevak, Aliaska, Jungtinės Amerikos Valstijos

platuma: 61-32-27N, ilguma: 165-36-03W, Aukštis: 23 m

Dabartinis oras

Ataskaita buvo paskelbta 59 minutes, ne 17:56 UTC
Vėjas 19 kt iš Šiaurės/Šiaurės Vakarų
Temperatūra -22°C
Drėgmė 76%
Slėgis 1000 hPa
Matomumas: 16.1 km
Išsisklaidę debesys ne aukštis 2300 ft

METAR: PAVA 291756Z AUTO 33019KT 10SM SCT023 M22/M25 A2954 RMK AO2 PK WND 35027/1658 SLP010 60000 T12221250 11217 21244 56013 FZRANO

Laikas: 09:55 (18:55 UTC)


TAF: trūkstamas

Orai ataskaitas ir orų prognozės (METAR, TAF).

turimą stotys yra geltonos ir raudonos taškus žemėlapyje.

Perkelti pele per norėdami pamatyti stoties vardą.

Tada spustelėkite, norėdami matyti oro stebėjimo ir prognozės.

Norėdami pakeisti žemėlapį: spustelėkite ant žalios mygtukų su juodo kryžiaus žemyn,; žalią mygtuką su brūkšneliu, jei norite nutolinti; arba žalių rodyklių gretimoms žemėlapius.


METAR-TAF: